createdAt,value
2023-05-09T00:01:31.241Z,66.63
2023-05-09T00:04:01.836Z,62.60
2023-05-09T00:06:28.941Z,67.13
2023-05-09T00:08:56.508Z,63.40
2023-05-09T00:11:23.694Z,65.30
2023-05-09T00:13:51.014Z,67.63
2023-05-09T00:16:18.744Z,64.53
2023-05-09T00:18:45.869Z,65.68
2023-05-09T00:21:12.914Z,72.05
2023-05-09T00:23:39.993Z,66.65
2023-05-09T00:26:07.176Z,66.95
2023-05-09T00:28:34.208Z,63.58
2023-05-09T00:31:01.267Z,68.25
2023-05-09T00:33:28.365Z,60.67
2023-05-09T00:35:55.530Z,63.85
2023-05-09T00:38:25.416Z,64.20
2023-05-09T00:40:52.494Z,66.20
2023-05-09T00:43:19.558Z,68.10
2023-05-09T00:45:46.733Z,62.22
2023-05-09T00:48:15.117Z,68.22
2023-05-09T00:50:42.234Z,64.03
2023-05-09T00:53:10.094Z,63.33
2023-05-09T00:55:37.245Z,67.18
2023-05-09T00:58:04.711Z,64.95
2023-05-09T01:00:32.293Z,68.13
2023-05-09T01:02:59.524Z,68.68
2023-05-09T01:05:30.367Z,69.50
2023-05-09T01:08:01.534Z,77.00
2023-05-09T01:10:40.796Z,76.55
2023-05-09T01:13:15.067Z,72.50
2023-05-09T01:15:55.464Z,73.05
2023-05-09T01:18:28.440Z,69.13
2023-05-09T01:20:55.472Z,70.90
2023-05-09T01:23:22.990Z,70.93
2023-05-09T01:25:54.805Z,68.40
2023-05-09T01:30:51.811Z,63.92
2023-05-09T01:33:19.909Z,69.72
2023-05-09T01:35:50.517Z,64.22
2023-05-09T01:38:19.228Z,62.92
2023-05-09T01:40:48.551Z,56.80
2023-05-09T01:43:17.744Z,59.78
2023-05-09T01:45:45.625Z,59.70
2023-05-09T01:48:13.674Z,63.90
2023-05-09T01:50:41.680Z,62.55
2023-05-09T01:53:09.495Z,64.25
2023-05-09T01:55:37.260Z,66.10
2023-05-09T01:58:05.475Z,73.75
2023-05-09T02:00:35.457Z,69.05
2023-05-09T02:03:03.402Z,65.30
2023-05-09T02:05:31.691Z,63.13
2023-05-09T02:07:58.954Z,66.32
2023-05-09T02:10:27.320Z,69.28
2023-05-09T02:12:54.722Z,66.95
2023-05-09T02:15:22.137Z,69.65
2023-05-09T02:17:49.247Z,73.85
2023-05-09T02:20:16.311Z,72.50
2023-05-09T02:22:44.045Z,65.72
2023-05-09T02:25:15.203Z,62.15
2023-05-09T02:27:43.641Z,60.72
2023-05-09T02:30:13.253Z,62.20
2023-05-09T02:32:40.909Z,65.63
2023-05-09T02:35:09.668Z,53.35
2023-05-09T02:37:37.598Z,54.50
2023-05-09T02:40:06.056Z,63.78
2023-05-09T02:42:33.370Z,63.03
2023-05-09T02:45:00.549Z,62.38
2023-05-09T02:47:27.657Z,62.45
2023-05-09T02:49:54.807Z,68.15
2023-05-09T02:52:21.925Z,56.80
2023-05-09T02:54:49.126Z,65.20
2023-05-09T02:57:16.304Z,64.80
2023-05-09T02:59:43.336Z,56.78
2023-05-09T03:02:10.476Z,57.50
2023-05-09T03:04:37.644Z,55.90
2023-05-09T03:07:04.761Z,61.85
2023-05-09T03:09:31.844Z,57.80
2023-05-09T03:11:58.938Z,53.70
2023-05-09T03:14:26.010Z,68.18
2023-05-09T03:16:53.081Z,59.35
2023-05-09T03:19:20.213Z,75.65
2023-05-09T03:21:47.298Z,75.22
2023-05-09T03:24:14.350Z,92.82
2023-05-09T03:26:41.442Z,103.18
2023-05-09T03:29:08.507Z,103.85
2023-05-09T03:31:36.104Z,117.20
2023-05-09T03:34:03.205Z,96.63
2023-05-09T03:36:30.483Z,143.57
2023-05-09T03:38:57.725Z,136.00
2023-05-09T03:41:24.820Z,177.75
2023-05-09T03:43:51.931Z,328.20
2023-05-09T03:46:19.044Z,267.83
2023-05-09T03:48:46.133Z,163.13
2023-05-09T03:51:13.171Z,300.73
2023-05-09T03:53:40.318Z,133.77
2023-05-09T03:56:07.704Z,133.90
2023-05-09T03:58:34.876Z,146.00
2023-05-09T04:01:02.031Z,121.72
2023-05-09T04:03:29.156Z,246.02
2023-05-09T04:05:56.395Z,261.10
2023-05-09T04:08:23.670Z,247.20
2023-05-09T04:10:52.384Z,334.65
2023-05-09T04:13:19.583Z,315.10
2023-05-09T04:15:46.706Z,211.68
2023-05-09T04:18:13.755Z,156.55
2023-05-09T04:20:40.843Z,193.10
2023-05-09T04:23:08.011Z,186.10
2023-05-09T04:25:35.687Z,173.30
2023-05-09T04:28:02.806Z,135.77
2023-05-09T04:30:29.865Z,106.80
2023-05-09T04:32:57.788Z,117.30
2023-05-09T04:35:24.930Z,94.35
2023-05-09T04:37:52.465Z,80.53
2023-05-09T04:40:19.536Z,77.88
2023-05-09T04:42:46.758Z,91.97
2023-05-09T04:45:14.461Z,80.13
2023-05-09T04:47:41.718Z,85.38
2023-05-09T04:50:09.151Z,84.75
2023-05-09T04:52:36.170Z,78.30
2023-05-09T04:55:03.495Z,83.65
2023-05-09T04:57:30.770Z,75.13
2023-05-09T04:59:57.888Z,73.85
2023-05-09T05:02:25.305Z,85.00
2023-05-09T05:04:56.126Z,81.57
2023-05-09T05:07:27.425Z,77.63
2023-05-09T05:09:54.482Z,88.53
2023-05-09T05:12:21.784Z,82.18
2023-05-09T05:14:48.937Z,85.60
2023-05-09T05:17:18.156Z,85.82
2023-05-09T05:19:45.292Z,74.05
2023-05-09T05:22:12.912Z,86.70
2023-05-09T05:24:40.058Z,82.80
2023-05-09T05:27:07.143Z,81.03
2023-05-09T05:29:34.247Z,77.68
2023-05-09T05:32:01.461Z,77.88
2023-05-09T05:34:28.736Z,80.00
2023-05-09T05:36:55.953Z,82.78
2023-05-09T05:39:23.173Z,76.28
2023-05-09T05:41:51.903Z,73.60
2023-05-09T05:44:19.048Z,75.20
2023-05-09T05:46:46.151Z,78.28
2023-05-09T05:49:13.260Z,70.90
2023-05-09T05:51:41.459Z,68.70
2023-05-09T05:54:08.591Z,70.80
2023-05-09T05:56:35.815Z,67.63
2023-05-09T05:59:02.906Z,66.60
2023-05-09T06:01:29.960Z,65.57
2023-05-09T06:03:57.108Z,65.90
2023-05-09T06:06:24.274Z,55.42
2023-05-09T06:08:51.446Z,58.15
2023-05-09T06:11:18.984Z,60.15
2023-05-09T06:13:46.119Z,63.80
2023-05-09T06:16:19.178Z,58.03
2023-05-09T06:18:47.640Z,60.08
2023-05-09T06:21:14.696Z,57.47
2023-05-09T06:23:57.029Z,54.28
2023-05-09T06:26:28.871Z,56.92
2023-05-09T06:28:56.349Z,53.95
2023-05-09T06:31:25.402Z,55.92
2023-05-09T06:33:52.803Z,53.88
2023-05-09T06:36:19.935Z,56.08
2023-05-09T06:38:47.187Z,57.13
2023-05-09T06:41:14.255Z,55.30
2023-05-09T06:43:41.438Z,55.63
2023-05-09T06:46:08.507Z,52.15
2023-05-09T06:48:35.716Z,49.97
2023-05-09T06:51:02.997Z,53.38
2023-05-09T06:53:30.234Z,50.30
2023-05-09T06:55:57.402Z,50.38
2023-05-09T06:58:24.535Z,43.70
2023-05-09T07:00:51.676Z,44.78
2023-05-09T07:03:18.723Z,41.53
2023-05-09T07:05:45.840Z,37.75
2023-05-09T07:08:12.880Z,39.35
2023-05-09T07:10:40.176Z,39.70
2023-05-09T07:13:07.260Z,36.80
2023-05-09T07:15:41.786Z,37.47
2023-05-09T07:18:10.030Z,38.83
2023-05-09T07:20:37.332Z,40.75
2023-05-09T07:23:04.816Z,35.65
2023-05-09T07:25:32.131Z,35.72
2023-05-09T07:27:59.346Z,40.50
2023-05-09T07:30:26.501Z,38.08
2023-05-09T07:32:53.796Z,38.08
2023-05-09T07:35:21.300Z,35.30
2023-05-09T07:37:48.443Z,32.83
2023-05-09T07:40:15.903Z,36.25
2023-05-09T07:42:49.594Z,34.78
2023-05-09T07:45:17.853Z,32.50
2023-05-09T07:47:45.961Z,35.63
2023-05-09T07:50:13.028Z,32.53
2023-05-09T07:52:40.171Z,32.33
2023-05-09T07:55:07.449Z,34.63
2023-05-09T07:57:34.635Z,36.70
2023-05-09T08:00:01.772Z,33.75
2023-05-09T08:02:28.903Z,31.88
2023-05-09T08:04:56.210Z,32.53
2023-05-09T08:07:23.343Z,34.53
2023-05-09T08:09:50.507Z,33.08
2023-05-09T08:12:17.547Z,31.95
2023-05-09T08:14:44.639Z,24.23
2023-05-09T08:17:11.666Z,27.02
2023-05-09T08:19:38.714Z,27.30
2023-05-09T08:22:05.803Z,29.13
2023-05-09T08:24:33.149Z,31.98
2023-05-09T08:27:00.670Z,30.15
2023-05-09T08:29:28.935Z,26.48
2023-05-09T08:31:56.092Z,24.13
2023-05-09T08:34:23.281Z,26.88
2023-05-09T08:36:50.340Z,24.60
2023-05-09T08:39:17.892Z,24.23
2023-05-09T08:41:45.209Z,23.02
2023-05-09T08:44:12.336Z,24.70
2023-05-09T08:46:40.154Z,23.10
2023-05-09T08:49:08.258Z,23.10
2023-05-09T08:51:36.368Z,19.25
2023-05-09T08:54:04.124Z,18.98
2023-05-09T08:56:31.767Z,17.95
2023-05-09T08:58:59.235Z,20.10
2023-05-09T09:01:29.646Z,17.95
2023-05-09T09:03:57.059Z,18.45
2023-05-09T09:06:25.761Z,18.05
2023-05-09T09:08:54.599Z,17.92
2023-05-09T09:11:22.812Z,17.13
2023-05-09T09:13:52.281Z,16.40
2023-05-09T09:16:21.073Z,18.25
2023-05-09T09:18:48.580Z,18.25
2023-05-09T09:21:17.217Z,16.20
2023-05-09T09:23:44.868Z,17.92
2023-05-09T09:26:12.011Z,16.23
2023-05-09T09:28:39.203Z,19.20
2023-05-09T09:31:21.468Z,16.45
2023-05-09T09:33:49.105Z,17.77
2023-05-09T09:36:16.155Z,16.83
2023-05-09T09:38:44.623Z,15.95
2023-05-09T09:41:12.860Z,15.05
2023-05-09T09:43:39.984Z,18.25
2023-05-09T09:46:07.142Z,15.60
2023-05-09T09:48:35.043Z,16.08
2023-05-09T09:51:21.098Z,14.98
2023-05-09T09:53:48.214Z,17.20
2023-05-09T09:56:15.344Z,15.23
2023-05-09T09:58:42.441Z,16.05
2023-05-09T10:01:10.713Z,14.00
2023-05-09T10:03:42.331Z,16.35
2023-05-09T10:06:16.460Z,14.25
2023-05-09T10:08:49.095Z,14.02
2023-05-09T10:11:16.688Z,16.42
2023-05-09T10:13:44.421Z,12.60
2023-05-09T10:16:12.081Z,12.98
2023-05-09T10:18:40.359Z,9.93
2023-05-09T10:21:08.693Z,11.23
2023-05-09T10:23:38.322Z,10.02
2023-05-09T10:26:27.524Z,10.80
2023-05-09T10:28:56.125Z,9.30
2023-05-09T10:31:25.436Z,11.00
2023-05-09T10:33:52.602Z,10.52
2023-05-09T10:36:20.845Z,9.43
2023-05-09T10:38:48.945Z,8.73
2023-05-09T10:41:17.124Z,12.82
2023-05-09T10:43:45.101Z,9.23
2023-05-09T10:46:13.195Z,10.35
2023-05-09T10:48:40.675Z,8.57
2023-05-09T10:51:08.470Z,8.32
2023-05-09T10:53:44.687Z,7.93
2023-05-09T10:56:23.974Z,11.38
2023-05-09T10:58:51.055Z,10.80
2023-05-09T11:01:29.429Z,8.48
2023-05-09T11:03:57.629Z,10.98
2023-05-09T11:06:46.243Z,10.18
2023-05-09T11:09:33.298Z,8.05
2023-05-09T11:12:06.829Z,9.50
2023-05-09T11:14:36.735Z,9.65
2023-05-09T11:17:05.286Z,10.73
2023-05-09T11:19:38.397Z,11.73
2023-05-09T11:22:14.467Z,10.88
2023-05-09T11:24:45.845Z,6.80
2023-05-09T11:29:47.328Z,10.13
2023-05-09T11:32:15.894Z,11.65
2023-05-09T11:34:46.645Z,12.80
2023-05-09T11:37:14.826Z,8.90
2023-05-09T11:39:58.548Z,8.52
2023-05-09T11:42:26.533Z,9.15
2023-05-09T11:44:54.032Z,9.38
2023-05-09T11:47:21.690Z,9.63
2023-05-09T11:49:50.016Z,9.65
2023-05-09T11:52:17.704Z,9.70
2023-05-09T11:54:44.903Z,11.40
2023-05-09T11:57:17.152Z,8.73
2023-05-09T11:59:45.335Z,10.57
2023-05-09T12:02:13.441Z,11.52
2023-05-09T12:04:40.757Z,12.27
2023-05-09T12:07:08.048Z,11.63
2023-05-09T12:09:39.017Z,12.60
2023-05-09T12:12:11.565Z,12.73
2023-05-09T12:14:39.469Z,15.50
2023-05-09T12:17:09.895Z,13.70
2023-05-09T12:19:37.192Z,14.48
2023-05-09T12:22:09.894Z,17.45
2023-05-09T12:24:37.760Z,15.02
2023-05-09T12:27:05.221Z,14.18
2023-05-09T12:29:32.373Z,18.17
2023-05-09T12:31:59.723Z,15.25
2023-05-09T12:34:26.944Z,16.52
2023-05-09T12:36:54.024Z,16.65
2023-05-09T12:39:23.030Z,15.85
2023-05-09T12:42:01.102Z,15.05
2023-05-09T12:44:29.853Z,16.70
2023-05-09T12:46:58.818Z,16.83
2023-05-09T12:49:26.895Z,15.73
2023-05-09T12:51:54.765Z,15.07
2023-05-09T12:54:23.295Z,15.90
2023-05-09T12:56:52.697Z,17.33
2023-05-09T12:59:26.979Z,16.58
2023-05-09T13:01:54.738Z,20.65
2023-05-09T13:04:22.172Z,17.75
2023-05-09T13:06:50.492Z,17.63
2023-05-09T13:09:18.416Z,14.52
2023-05-09T13:11:46.828Z,18.25
2023-05-09T13:14:14.465Z,16.60
2023-05-09T13:16:42.107Z,14.88
2023-05-09T13:19:09.462Z,15.25
2023-05-09T13:21:36.985Z,15.68
2023-05-09T13:24:04.840Z,14.75
2023-05-09T13:26:32.198Z,15.65
2023-05-09T13:28:59.347Z,14.75
2023-05-09T13:31:26.447Z,14.38
2023-05-09T13:33:53.695Z,15.35
2023-05-09T13:36:21.240Z,12.88
2023-05-09T13:38:48.460Z,12.20
2023-05-09T13:41:20.148Z,11.13
2023-05-09T13:43:47.575Z,13.27
2023-05-09T13:46:14.684Z,11.27
2023-05-09T13:48:42.018Z,12.60
2023-05-09T13:51:09.870Z,12.32
2023-05-09T13:53:38.870Z,11.52
2023-05-09T13:56:07.386Z,11.20
2023-05-09T13:58:34.491Z,11.30
2023-05-09T14:01:01.598Z,10.65
2023-05-09T14:03:28.768Z,9.90
2023-05-09T14:05:55.876Z,10.70
2023-05-09T14:08:23.059Z,7.70
2023-05-09T14:10:50.133Z,7.78
2023-05-09T14:13:17.275Z,8.00
2023-05-09T14:15:44.416Z,8.50
2023-05-09T14:18:14.638Z,9.00
2023-05-09T14:20:44.132Z,7.22
2023-05-09T14:23:11.141Z,8.00
2023-05-09T14:25:38.372Z,8.93
2023-05-09T14:28:08.778Z,8.93
2023-05-09T14:30:36.837Z,7.57
2023-05-09T14:33:03.922Z,8.50
2023-05-09T14:35:33.760Z,7.55
2023-05-09T14:38:01.516Z,7.32
2023-05-09T14:40:31.853Z,7.43
2023-05-09T14:42:59.416Z,7.00
2023-05-09T14:45:26.476Z,7.70
2023-05-09T14:47:53.777Z,6.50
2023-05-09T14:50:21.768Z,6.13
2023-05-09T14:52:49.773Z,5.70
2023-05-09T14:55:17.383Z,7.22
2023-05-09T14:57:44.531Z,4.93
2023-05-09T15:00:20.158Z,4.32
2023-05-09T15:02:48.153Z,4.22
2023-05-09T15:05:15.847Z,4.40
2023-05-09T15:07:42.933Z,3.53
2023-05-09T15:10:10.260Z,4.00
2023-05-09T15:12:37.305Z,3.83
2023-05-09T15:15:20.840Z,3.15
2023-05-09T15:17:48.032Z,3.78
2023-05-09T15:20:16.263Z,3.85
2023-05-09T15:22:43.930Z,3.88
2023-05-09T15:25:11.938Z,5.63
2023-05-09T15:27:39.917Z,4.40
2023-05-09T15:30:07.698Z,4.60
2023-05-09T15:32:35.897Z,4.15
2023-05-09T15:35:03.088Z,4.15
2023-05-09T15:37:30.142Z,3.50
2023-05-09T15:39:57.331Z,4.13
2023-05-09T15:42:25.282Z,4.25
2023-05-09T15:44:52.993Z,4.22
2023-05-09T15:47:20.089Z,3.53
2023-05-09T15:49:47.364Z,4.20
2023-05-09T15:52:15.579Z,4.53
2023-05-09T15:54:45.274Z,3.97
2023-05-09T15:57:17.645Z,4.03
2023-05-09T15:59:44.916Z,3.40
2023-05-09T16:02:12.434Z,2.58
2023-05-09T16:04:39.757Z,5.80
2023-05-09T16:07:06.994Z,3.45
2023-05-09T16:09:34.098Z,3.53
2023-05-09T16:12:01.383Z,3.67
2023-05-09T16:14:28.768Z,3.03
2023-05-09T16:16:56.475Z,4.53
2023-05-09T16:19:23.619Z,3.63
2023-05-09T16:21:50.960Z,3.00
2023-05-09T16:24:18.068Z,3.33
2023-05-09T16:26:45.103Z,2.85
2023-05-09T16:29:12.900Z,5.07
2023-05-09T16:31:40.042Z,3.70
2023-05-09T16:34:07.299Z,2.72
2023-05-09T16:36:34.455Z,2.63
2023-05-09T16:39:02.004Z,3.58
2023-05-09T16:41:29.320Z,4.82
2023-05-09T16:43:57.444Z,2.97
2023-05-09T16:46:24.687Z,2.80
2023-05-09T16:48:52.648Z,3.03
2023-05-09T16:51:19.955Z,2.38
2023-05-09T16:53:47.608Z,2.72
2023-05-09T16:56:15.066Z,3.45
2023-05-09T16:58:44.474Z,2.95
2023-05-09T17:01:11.715Z,2.55
2023-05-09T17:03:39.022Z,3.35
2023-05-09T17:06:06.247Z,2.58
2023-05-09T17:08:33.346Z,3.35
2023-05-09T17:11:00.448Z,2.55
2023-05-09T17:13:28.101Z,3.22
2023-05-09T17:15:55.915Z,3.33
2023-05-09T17:18:35.966Z,3.50
2023-05-09T17:21:04.385Z,2.63
2023-05-09T17:23:31.900Z,3.63
2023-05-09T17:25:59.196Z,3.58
2023-05-09T17:28:27.317Z,4.63
2023-05-09T17:30:54.678Z,3.35
2023-05-09T17:33:21.759Z,3.95
2023-05-09T17:35:50.036Z,3.22
2023-05-09T17:38:17.673Z,3.22
2023-05-09T17:40:45.133Z,3.75
2023-05-09T17:43:13.354Z,4.38
2023-05-09T17:45:40.554Z,3.72
2023-05-09T17:48:08.181Z,4.88
2023-05-09T17:50:35.394Z,3.88
2023-05-09T17:53:03.090Z,4.05
2023-05-09T17:55:30.472Z,4.00
2023-05-09T17:57:57.630Z,4.53
2023-05-09T18:00:24.799Z,4.38
2023-05-09T18:02:52.302Z,3.67
2023-05-09T18:05:19.539Z,3.78
2023-05-09T18:07:46.594Z,4.60
2023-05-09T18:10:13.954Z,5.55
2023-05-09T18:12:41.644Z,3.97
2023-05-09T18:15:10.154Z,7.55
2023-05-09T18:17:37.278Z,4.57
2023-05-09T18:20:08.556Z,5.90
2023-05-09T18:22:37.269Z,4.05
2023-05-09T18:25:04.509Z,4.50
2023-05-09T18:27:31.728Z,5.07
2023-05-09T18:29:58.835Z,5.93
2023-05-09T18:32:26.067Z,4.90
2023-05-09T18:34:53.315Z,5.47
2023-05-09T18:37:20.596Z,6.53
2023-05-09T18:39:47.825Z,4.28
2023-05-09T18:42:16.287Z,4.95
2023-05-09T18:44:43.818Z,5.70
2023-05-09T18:47:11.285Z,9.85
2023-05-09T18:49:38.799Z,5.95
2023-05-09T18:52:05.993Z,5.13
2023-05-09T18:54:33.230Z,6.15
2023-05-09T18:57:00.389Z,6.22
2023-05-09T18:59:27.656Z,5.22
2023-05-09T19:01:54.797Z,5.45
2023-05-09T19:04:22.003Z,10.10
2023-05-09T19:06:49.153Z,6.45
2023-05-09T19:09:16.670Z,5.97
2023-05-09T19:11:43.860Z,6.03
2023-05-09T19:14:10.880Z,21.77
2023-05-09T19:16:37.996Z,6.97
2023-05-09T19:19:05.020Z,8.30
2023-05-09T19:21:33.788Z,6.38
2023-05-09T19:24:00.838Z,7.80
2023-05-09T19:26:27.966Z,7.30
2023-05-09T19:28:55.141Z,6.45
2023-05-09T19:31:22.265Z,6.30
2023-05-09T19:33:49.590Z,7.90
2023-05-09T19:36:17.854Z,7.22
2023-05-09T19:38:45.440Z,7.53
2023-05-09T19:41:13.976Z,7.38
2023-05-09T19:43:41.113Z,8.65
2023-05-09T19:46:08.420Z,7.88
2023-05-09T19:48:35.895Z,7.55
2023-05-09T19:51:03.140Z,8.02
2023-05-09T19:53:30.283Z,9.63
2023-05-09T19:55:57.779Z,9.75
2023-05-09T19:58:24.955Z,11.30
2023-05-09T20:00:52.219Z,10.38
2023-05-09T20:03:19.449Z,9.93
2023-05-09T20:05:55.782Z,11.15
2023-05-09T20:08:23.055Z,10.10
2023-05-09T20:10:50.031Z,10.82
2023-05-09T20:13:17.194Z,10.10
2023-05-09T20:15:44.605Z,10.27
2023-05-09T20:18:11.699Z,10.35
2023-05-09T20:20:38.719Z,10.93
2023-05-09T20:23:05.787Z,10.35
2023-05-09T20:25:32.845Z,10.15
2023-05-09T20:27:59.952Z,12.68
2023-05-09T20:30:27.036Z,10.27
2023-05-09T20:32:54.247Z,10.75
2023-05-09T20:35:21.346Z,12.68
2023-05-09T20:37:48.366Z,13.27
2023-05-09T20:40:15.801Z,14.10
2023-05-09T20:42:43.121Z,11.80
2023-05-09T20:45:10.742Z,11.15
2023-05-09T20:47:39.426Z,11.35
2023-05-09T20:50:07.025Z,12.93
2023-05-09T20:52:34.076Z,11.15
2023-05-09T20:55:01.913Z,13.18
2023-05-09T20:57:28.959Z,11.75
2023-05-09T20:59:55.940Z,10.63
2023-05-09T21:02:23.102Z,10.98
2023-05-09T21:04:50.222Z,13.95
2023-05-09T21:07:20.229Z,13.05
2023-05-09T21:09:47.980Z,13.18
2023-05-09T21:12:14.998Z,12.20
2023-05-09T21:14:42.086Z,14.38
2023-05-09T21:17:09.589Z,13.55
2023-05-09T21:19:36.643Z,14.32
2023-05-09T21:22:03.691Z,12.68
2023-05-09T21:24:30.678Z,13.80
2023-05-09T21:26:57.672Z,12.20
2023-05-09T21:29:24.656Z,13.27
2023-05-09T21:31:51.765Z,17.73
2023-05-09T21:34:18.873Z,16.20
2023-05-09T21:36:45.884Z,17.48
2023-05-09T21:39:12.939Z,14.77
2023-05-09T21:41:42.633Z,15.77
2023-05-09T21:44:11.137Z,13.55
2023-05-09T21:46:38.303Z,13.60
2023-05-09T21:49:05.444Z,14.57
2023-05-09T21:51:33.321Z,15.05
2023-05-09T21:54:01.059Z,15.52
2023-05-09T21:56:28.103Z,13.88
2023-05-09T21:58:55.158Z,13.52
2023-05-09T22:01:22.263Z,15.50
2023-05-09T22:03:49.474Z,16.73
2023-05-09T22:06:16.565Z,15.25
2023-05-09T22:08:44.046Z,14.70
2023-05-09T22:11:12.690Z,14.70
2023-05-09T22:13:41.396Z,16.55
2023-05-09T22:16:08.584Z,13.25
2023-05-09T22:18:35.680Z,13.82
2023-05-09T22:21:02.765Z,18.02
2023-05-09T22:23:29.752Z,14.63
2023-05-09T22:25:56.744Z,16.23
2023-05-09T22:28:23.797Z,15.43
2023-05-09T22:30:50.815Z,16.00
2023-05-09T22:33:17.868Z,15.88
2023-05-09T22:35:44.880Z,15.88
2023-05-09T22:38:11.912Z,14.68
2023-05-09T22:40:38.919Z,14.07
2023-05-09T22:43:06.121Z,12.52
2023-05-09T22:45:33.258Z,12.43
2023-05-09T22:48:00.328Z,10.80
2023-05-09T22:50:27.476Z,13.13
2023-05-09T22:52:54.651Z,12.43
2023-05-09T22:55:21.926Z,12.15
2023-05-09T22:57:49.018Z,16.85
2023-05-09T23:00:16.508Z,14.05
2023-05-09T23:02:43.922Z,14.63
2023-05-09T23:05:11.136Z,13.25
2023-05-09T23:07:38.269Z,13.68
2023-05-09T23:10:05.848Z,14.65
2023-05-09T23:12:33.055Z,13.13
2023-05-09T23:15:00.121Z,15.30
2023-05-09T23:17:27.259Z,17.48
2023-05-09T23:19:54.409Z,15.95
2023-05-09T23:22:21.630Z,15.13
2023-05-09T23:24:48.684Z,17.20
2023-05-09T23:27:15.749Z,16.77
2023-05-09T23:29:43.464Z,15.30
2023-05-09T23:32:10.508Z,18.40
2023-05-09T23:34:37.575Z,16.38
2023-05-09T23:37:04.966Z,14.43
2023-05-09T23:39:32.366Z,14.98
2023-05-09T23:41:59.501Z,16.33
2023-05-09T23:44:26.632Z,16.15
2023-05-09T23:46:53.908Z,17.15
2023-05-09T23:49:21.034Z,16.45
2023-05-09T23:51:48.107Z,19.23
2023-05-09T23:54:16.455Z,17.95
2023-05-09T23:56:43.723Z,18.27
2023-05-09T23:59:10.867Z,18.38
